Time;durP1;ratioP1;P1;durP2;ratioP2;P2;SDS_P1;SDS_P2;PMS_P1;PMS_P2;Temp;Humidity;BMP_temperature;BMP_pressure;BME280_temperature;BME280_humidity;BME280_pressure;Samples;Min_cycle;Max_cycle;Signal;HPM_P1;HPM_P2
2022/03/28 00:01:28;;;;;;;4.10;2.10;;;;;;;-4.00;75.10;100517.59;4955393;29;20031;-65
2022/03/28 00:03:53;;;;;;;3.37;2.63;;;;;;;-4.03;75.13;100502.97;4955325;29;20039;-65
2022/03/28 00:06:18;;;;;;;5.23;2.60;;;;;;;-4.00;75.05;100500.22;4955098;29;20114;-65
2022/03/28 00:08:44;;;;;;;7.63;2.43;;;;;;;-4.08;75.09;100479.78;4955440;29;20563;-65
2022/03/28 00:11:10;;;;;;;3.73;2.40;;;;;;;-4.17;76.63;100482.84;4955335;29;20036;-64
2022/03/28 00:13:37;;;;;;;3.20;2.20;;;;;;;-4.27;76.70;100466.03;4955231;29;20043;-64
2022/03/28 00:16:03;;;;;;;5.82;2.95;;;;;;;-4.26;76.94;100456.47;4955087;29;20366;-65
2022/03/28 00:18:29;;;;;;;3.80;2.15;;;;;;;-4.41;76.71;100424.25;4954994;29;20039;-65
2022/03/28 00:20:55;;;;;;;6.10;1.80;;;;;;;-4.39;76.74;100410.25;4954879;29;20082;-64
2022/03/28 00:23:22;;;;;;;3.90;1.92;;;;;;;-4.39;77.19;100412.03;4955420;29;20074;-64
2022/03/28 00:25:48;;;;;;;7.07;2.08;;;;;;;-4.45;77.18;100381.16;4955036;29;20407;-65
2022/03/28 00:28:14;;;;;;;2.40;2.07;;;;;;;-4.34;76.79;100384.03;4954807;29;20035;-65
2022/03/28 00:30:40;;;;;;;2.97;1.77;;;;;;;-4.26;76.95;100368.06;4954813;29;20045;-68
2022/03/28 00:33:06;;;;;;;3.63;1.80;;;;;;;-4.29;76.45;100365.63;4954806;29;20130;-65
2022/03/28 00:35:32;;;;;;;2.43;1.87;;;;;;;-4.33;76.45;100344.16;4954381;29;20125;-64
2022/03/28 00:38:00;;;;;;;3.40;2.10;;;;;;;-4.36;77.03;100339.91;4954641;29;20509;-65
2022/03/28 00:40:28;;;;;;;1.85;1.55;;;;;;;-4.33;77.15;100331.16;4954794;29;20046;-64
2022/03/28 00:42:55;;;;;;;2.67;2.13;;;;;;;-4.36;77.04;100313.09;4955030;29;20240;-66
2022/03/28 00:45:21;;;;;;;5.55;2.05;;;;;;;-4.33;76.98;100299.97;4955917;29;20047;-65
2022/03/28 00:47:47;;;;;;;3.23;1.93;;;;;;;-4.28;76.69;100292.75;4954985;29;20089;-65
2022/03/28 00:50:12;;;;;;;2.10;1.90;;;;;;;-4.27;76.83;100276.22;4954352;29;20035;-65
2022/03/28 00:52:38;;;;;;;3.33;2.20;;;;;;;-4.31;76.53;100266.91;4954454;28;20494;-65
2022/03/28 00:55:06;;;;;;;3.37;2.17;;;;;;;-4.30;76.85;100253.00;4968130;28;20121;-68
2022/03/28 00:57:32;;;;;;;2.88;2.10;;;;;;;-4.29;76.21;100226.09;4970001;28;20065;-66
2022/03/28 00:59:59;;;;;;;2.00;1.60;;;;;;;-4.32;76.76;100217.59;4954414;29;20039;-65
2022/03/28 01:02:25;;;;;;;6.70;2.08;;;;;;;-4.28;76.34;100199.16;4937051;29;20039;-66
2022/03/28 01:04:51;;;;;;;3.95;1.85;;;;;;;-4.33;76.03;100184.75;4954023;29;20039;-65
2022/03/28 01:07:19;;;;;;;1.97;1.77;;;;;;;-4.38;75.94;100177.16;4954511;29;20035;-66
2022/03/28 01:09:45;;;;;;;3.88;2.05;;;;;;;-4.34;76.01;100165.66;4954803;29;20290;-66
2022/03/28 01:12:11;;;;;;;2.50;2.30;;;;;;;-4.32;75.59;100134.41;4959762;28;20382;-65
2022/03/28 01:14:38;;;;;;;2.90;2.00;;;;;;;-4.24;75.27;100132.22;4973703;28;20037;-66
2022/03/28 01:19:54;;;;;;;3.72;2.00;;;;;;;-4.25;75.32;100110.59;4973764;28;20070;-66
2022/03/28 01:22:20;;;;;;;3.27;2.87;;;;;;;-4.25;75.06;100095.00;4973531;28;20082;-64
2022/03/28 01:24:47;;;;;;;1.70;1.60;;;;;;;-4.20;75.51;100090.38;4973665;28;20278;-66
2022/03/28 01:27:14;;;;;;;3.22;2.10;;;;;;;-4.28;75.45;100058.78;4973226;28;20114;-63
2022/03/28 01:29:43;;;;;;;4.10;2.17;;;;;;;-4.31;75.51;100045.94;4973110;28;20046;-66
2022/03/28 01:32:09;;;;;;;2.80;1.92;;;;;;;-4.30;75.60;100039.00;4973237;28;20035;-65
2022/03/28 01:34:35;;;;;;;3.20;2.00;;;;;;;-4.33;75.50;100016.59;4973009;28;20038;-65
2022/03/28 01:37:00;;;;;;;1.97;1.83;;;;;;;-4.64;76.41;99982.84;4972972;28;20274;-64
2022/03/28 01:39:26;;;;;;;2.43;1.90;;;;;;;-4.43;76.42;99986.84;4973431;28;20041;-64
2022/03/28 01:41:52;;;;;;;3.13;1.70;;;;;;;-4.44;76.38;99996.41;4973098;28;20525;-65
2022/03/28 01:44:18;;;;;;;6.55;2.00;;;;;;;-4.54;75.94;99977.06;4972841;28;20054;-65
2022/03/28 01:46:45;;;;;;;2.70;2.20;;;;;;;-4.54;76.48;99958.03;4973789;28;20035;-63
2022/03/28 01:49:11;;;;;;;1.85;1.60;;;;;;;-4.33;76.29;99968.97;4983790;28;20038;-64
2022/03/28 01:51:38;;;;;;;2.15;1.95;;;;;;;-4.29;75.31;99942.72;4984493;28;20034;-65
2022/03/28 01:54:04;;;;;;;2.38;2.17;;;;;;;-4.27;76.21;99935.66;4983046;28;20058;-66
2022/03/28 01:56:30;;;;;;;2.60;2.15;;;;;;;-4.26;76.15;99926.09;4973481;28;20047;-65
2022/03/28 01:58:55;;;;;;;2.73;2.07;;;;;;;-4.34;76.38;99902.28;4972606;28;20109;-64
2022/03/28 02:01:21;;;;;;;2.53;2.23;;;;;;;-4.47;76.48;99904.78;4972903;28;20045;-65
2022/03/28 02:03:47;;;;;;;6.40;2.30;;;;;;;-4.43;77.06;99888.91;4972994;28;20061;-64
2022/03/28 02:06:12;;;;;;;2.13;1.93;;;;;;;-4.40;77.08;99874.91;4975656;28;20039;-64
2022/03/28 02:08:38;;;;;;;4.33;2.40;;;;;;;-4.37;76.46;99846.13;4976869;28;20045;-64
2022/03/28 02:11:03;;;;;;;6.97;2.70;;;;;;;-4.27;76.70;99860.28;4978250;28;20394;-65
2022/03/28 02:13:29;;;;;;;2.00;1.73;;;;;;;-4.28;76.28;99839.56;4976491;28;20207;-65
2022/03/28 02:15:55;;;;;;;2.87;2.13;;;;;;;-4.36;76.54;99843.44;4976414;28;20043;-63
2022/03/28 02:18:20;;;;;;;3.37;2.50;;;;;;;-4.40;76.80;99825.53;4976775;28;20089;-65
2022/03/28 02:20:46;;;;;;;2.80;2.20;;;;;;;-4.33;77.18;99810.41;4976628;28;20043;-64
2022/03/28 02:23:11;;;;;;;1.50;1.40;;;;;;;-4.34;76.62;99791.34;4976486;28;20441;-65
2022/03/28 02:25:39;;;;;;;1.93;1.73;;;;;;;-4.36;76.84;99780.22;4977588;28;20049;-65
2022/03/28 02:28:05;;;;;;;3.22;1.92;;;;;;;-4.29;77.48;99771.16;4976233;28;20513;-66
2022/03/28 02:30:31;;;;;;;2.70;2.50;;;;;;;-4.34;77.22;99739.38;4976060;28;20034;-64
2022/03/28 02:32:58;;;;;;;2.70;2.20;;;;;;;-4.36;76.73;99733.44;4976508;28;20554;-66
2022/03/28 02:35:24;;;;;;;2.03;1.92;;;;;;;-4.41;77.15;99719.88;4976568;28;20035;-64
2022/03/28 02:37:50;;;;;;;4.95;2.90;;;;;;;-4.37;76.53;99722.19;4976750;28;20070;-64
2022/03/28 02:40:16;;;;;;;8.80;2.05;;;;;;;-4.41;76.47;99720.72;4976331;28;20035;-64
2022/03/28 02:42:44;;;;;;;2.67;1.87;;;;;;;-4.45;77.05;99710.59;4975807;28;20421;-64
2022/03/28 02:45:10;;;;;;;1.85;1.63;;;;;;;-4.44;76.99;99678.50;4976175;28;20414;-65
2022/03/28 02:47:36;;;;;;;2.20;1.97;;;;;;;-4.46;78.07;99664.75;4976161;28;20038;-65
2022/03/28 02:50:03;;;;;;;1.85;1.70;;;;;;;-4.47;77.84;99669.13;4975906;28;20035;-65
2022/03/28 02:52:29;;;;;;;2.22;1.85;;;;;;;-4.46;77.84;99654.38;4975837;28;20039;-64
2022/03/28 02:54:55;;;;;;;3.27;2.10;;;;;;;-4.41;78.13;99650.56;4975985;28;20051;-64
2022/03/28 02:57:21;;;;;;;2.20;2.00;;;;;;;-4.52;78.46;99618.38;4975863;28;20039;-66
2022/03/28 02:59:46;;;;;;;2.88;1.98;;;;;;;-4.40;77.52;99618.44;4976073;28;20059;-64
2022/03/28 03:02:12;;;;;;;1.90;1.60;;;;;;;-4.36;78.25;99614.72;4975825;28;20061;-66
2022/03/28 03:04:38;;;;;;;3.07;2.10;;;;;;;-4.33;77.83;99592.09;4975720;28;20482;-64
2022/03/28 03:07:04;;;;;;;3.17;2.13;;;;;;;-4.31;78.04;99578.06;4975730;28;20042;-63
2022/03/28 03:09:29;;;;;;;2.03;1.60;;;;;;;-4.27;77.83;99576.91;4975636;28;20038;-65
2022/03/28 03:11:55;;;;;;;2.47;2.20;;;;;;;-4.28;77.79;99562.25;4975988;28;20031;-64
2022/03/28 03:14:22;;;;;;;3.08;2.30;;;;;;;-4.31;78.04;99554.66;4975745;28;20045;-65
2022/03/28 03:16:47;;;;;;;2.67;2.13;;;;;;;-4.40;78.17;99514.47;4974700;28;20133;-65
2022/03/28 03:19:13;;;;;;;3.10;2.07;;;;;;;-4.36;78.27;99521.13;4975454;28;20145;-65
2022/03/28 03:21:38;;;;;;;2.20;1.83;;;;;;;-4.39;79.09;99518.75;4975805;28;20031;-65
2022/03/28 03:24:05;;;;;;;2.57;1.83;;;;;;;-4.44;79.55;99499.19;4975327;28;20049;-65
2022/03/28 03:26:32;;;;;;;1.90;1.80;;;;;;;-4.40;79.45;99492.84;4975247;28;20041;-65
2022/03/28 03:28:58;;;;;;;3.83;2.08;;;;;;;-4.38;79.53;99478.00;4975265;28;20089;-64
2022/03/28 03:31:25;;;;;;;2.17;1.90;;;;;;;-4.33;79.26;99456.94;4975093;28;20113;-65
2022/03/28 03:33:50;;;;;;;2.42;2.20;;;;;;;-4.34;78.88;99445.66;4975057;28;20047;-65
2022/03/28 03:36:16;;;;;;;2.77;1.90;;;;;;;-4.34;79.36;99437.03;4975195;28;20105;-65
2022/03/28 03:38:41;;;;;;;2.03;1.80;;;;;;;-4.37;80.17;99430.28;4974939;28;20042;-64
2022/03/28 03:41:07;;;;;;;2.90;2.20;;;;;;;-4.36;81.08;99405.94;4975056;28;20038;-64
2022/03/28 03:43:34;;;;;;;3.80;2.28;;;;;;;-4.31;80.24;99396.09;4975063;28;20506;-66
2022/03/28 03:45:59;;;;;;;3.97;2.20;;;;;;;-4.25;80.63;99382.69;4974951;28;20043;-65
2022/03/28 03:48:27;;;;;;;2.50;2.30;;;;;;;-4.23;80.71;99365.22;4974961;28;20035;-65
2022/03/28 03:50:53;;;;;;;4.13;2.33;;;;;;;-4.26;80.50;99344.66;4974950;28;20039;-65
2022/03/28 03:53:20;;;;;;;2.15;1.95;;;;;;;-4.22;80.29;99325.31;4957289;28;20050;-66
2022/03/28 03:55:46;;;;;;;3.33;2.78;;;;;;;-4.16;80.32;99321.44;4974660;28;20039;-64
2022/03/28 03:58:13;;;;;;;1.95;1.85;;;;;;;-4.17;80.76;99297.22;4975136;28;20035;-64
2022/03/28 04:00:40;;;;;;;3.28;2.53;;;;;;;-4.19;80.75;99280.06;4957453;28;20042;-65
2022/03/28 04:03:05;;;;;;;2.08;1.88;;;;;;;-4.16;80.24;99272.03;4957396;28;20039;-65
2022/03/28 04:05:32;;;;;;;7.97;2.63;;;;;;;-4.15;80.52;99264.13;4974541;28;20097;-66
2022/03/28 04:07:59;;;;;;;3.47;2.55;;;;;;;-4.09;80.33;99250.72;4974307;28;20038;-64
2022/03/28 04:10:26;;;;;;;6.82;2.20;;;;;;;-4.08;80.98;99234.16;4957324;28;20035;-65
2022/03/28 04:12:52;;;;;;;2.88;2.67;;;;;;;-4.12;81.20;99219.72;4974794;28;20482;-65
2022/03/28 04:15:18;;;;;;;3.50;2.80;;;;;;;-4.04;81.18;99218.38;4974304;28;20073;-65
2022/03/28 04:17:44;;;;;;;2.87;2.40;;;;;;;-3.95;80.92;99207.31;4974191;28;20039;-65
2022/03/28 04:20:15;;;;;;;6.18;3.08;;;;;;;-3.86;80.60;99189.28;4974178;28;20049;-65
2022/03/28 04:22:41;;;;;;;2.38;2.08;;;;;;;-3.86;79.79;99180.66;4974199;28;20177;-64
2022/03/28 04:25:08;;;;;;;2.33;1.98;;;;;;;-3.91;80.70;99178.38;4974198;28;20041;-64
2022/03/28 04:27:35;;;;;;;4.90;2.28;;;;;;;-3.91;80.11;99180.97;4974546;28;20049;-64
2022/03/28 04:30:07;;;;;;;3.90;2.72;;;;;;;-3.96;81.25;99171.84;4974025;28;20490;-65
2022/03/28 04:32:33;;;;;;;2.47;2.28;;;;;;;-4.03;81.47;99170.63;4974178;28;20173;-66
2022/03/28 04:34:58;;;;;;;3.58;2.15;;;;;;;-3.97;82.60;99173.63;4973862;28;20039;-66
2022/03/28 04:37:24;;;;;;;2.43;2.13;;;;;;;-4.04;82.36;99161.19;4973958;28;20037;-65
2022/03/28 04:39:50;;;;;;;3.03;2.53;;;;;;;-3.94;82.21;99151.78;4974184;28;20045;-64
2022/03/28 04:42:15;;;;;;;5.90;2.80;;;;;;;-3.87;82.36;99146.00;4974028;28;20150;-66
2022/03/28 04:44:43;;;;;;;4.05;2.05;;;;;;;-3.88;82.52;99130.50;4973924;28;20046;-66
2022/03/28 04:47:09;;;;;;;3.00;2.42;;;;;;;-3.90;83.11;99122.81;4973873;28;20054;-65
2022/03/28 04:49:34;;;;;;;7.03;3.00;;;;;;;-3.87;82.69;99119.16;4973932;28;20039;-65
2022/03/28 04:52:00;;;;;;;2.57;2.23;;;;;;;-4.01;82.16;99093.34;4974053;28;20034;-65
2022/03/28 04:54:26;;;;;;;5.57;3.47;;;;;;;-3.84;82.53;99111.97;4974038;28;20122;-64
2022/03/28 04:56:52;;;;;;;3.50;2.40;;;;;;;-3.83;83.28;99092.00;4974036;28;20047;-65
2022/03/28 04:59:17;;;;;;;3.90;2.13;;;;;;;-3.72;82.93;99075.63;4973851;28;20238;-65
2022/03/28 05:01:43;;;;;;;2.83;2.30;;;;;;;-3.68;83.44;99064.03;4956131;28;20122;-65
2022/03/28 05:04:08;;;;;;;4.83;2.53;;;;;;;-3.62;83.08;99051.38;4973543;28;20041;-65
2022/03/28 05:06:34;;;;;;;2.60;2.20;;;;;;;-3.54;83.11;99043.81;4973536;28;20104;-65
2022/03/28 05:08:59;;;;;;;3.30;2.70;;;;;;;-3.47;83.04;99032.03;4956107;28;20058;-65
2022/03/28 05:11:25;;;;;;;4.73;2.33;;;;;;;-3.48;82.55;99034.72;4973169;28;20061;-64
2022/03/28 05:13:51;;;;;;;2.53;2.10;;;;;;;-3.47;82.40;99016.41;4973756;28;20038;-64
2022/03/28 05:16:17;;;;;;;2.90;2.28;;;;;;;-3.42;82.91;99002.22;4973267;28;20037;-64
2022/03/28 05:18:43;;;;;;;3.70;2.88;;;;;;;-3.34;82.35;98990.28;4973260;28;20125;-65
2022/03/28 05:21:09;;;;;;;2.95;2.33;;;;;;;-3.23;82.06;98976.41;4973001;28;20038;-67
2022/03/28 05:23:35;;;;;;;2.93;2.47;;;;;;;-3.10;82.44;98966.72;4973381;28;20046;-65
2022/03/28 05:26:02;;;;;;;2.57;2.10;;;;;;;-3.09;81.08;98967.53;4973159;28;20043;-66
2022/03/28 05:28:28;;;;;;;7.88;3.15;;;;;;;-3.08;82.29;98950.97;4973374;28;20039;-65
2022/03/28 05:30:54;;;;;;;5.37;3.37;;;;;;;-3.00;82.70;98939.00;4973204;28;20049;-65
2022/03/28 05:33:20;;;;;;;7.37;3.50;;;;;;;-2.96;82.14;98936.97;4973169;28;20043;-69
2022/03/28 05:35:46;;;;;;;3.38;2.58;;;;;;;-2.96;82.62;98931.75;4974150;28;20039;-71
2022/03/28 05:38:12;;;;;;;4.30;2.47;;;;;;;-2.94;82.69;98930.69;4956540;28;20046;-65
2022/03/28 05:40:38;;;;;;;3.13;2.20;;;;;;;-2.90;82.61;98916.47;4972455;28;20090;-70
2022/03/28 05:43:04;;;;;;;5.90;2.57;;;;;;;-2.76;82.74;98902.34;4974909;28;20410;-68
2022/03/28 05:45:30;;;;;;;3.90;2.55;;;;;;;-2.66;81.83;98897.22;4973096;28;20101;-65
2022/03/28 05:47:56;;;;;;;3.40;2.93;;;;;;;-2.64;81.96;98896.13;4973033;28;20046;-71
2022/03/28 05:50:22;;;;;;;6.50;3.73;;;;;;;-2.56;81.72;98893.75;4973006;28;20039;-68
2022/03/28 05:52:48;;;;;;;3.60;3.28;;;;;;;-2.49;82.25;98870.59;4972863;28;20042;-69
2022/03/28 05:55:14;;;;;;;4.00;2.95;;;;;;;-2.40;82.44;98856.81;4972928;28;20086;-70
2022/03/28 05:57:40;;;;;;;3.93;3.43;;;;;;;-2.22;82.11;98860.50;4973426;28;20039;-68
2022/03/28 06:00:09;;;;;;;6.73;3.23;;;;;;;-2.22;83.02;98817.94;4973435;28;20093;-73
2022/03/28 06:02:36;;;;;;;4.30;3.25;;;;;;;-1.97;83.99;98834.97;4955903;28;20038;-71
2022/03/28 06:05:03;;;;;;;7.22;3.53;;;;;;;-1.94;83.68;98811.22;4973089;28;20046;-73
2022/03/28 06:07:28;;;;;;;5.07;3.42;;;;;;;-1.69;83.83;98816.00;4973674;28;20039;-72
2022/03/28 06:09:54;;;;;;;4.73;3.57;;;;;;;-1.56;84.11;98800.06;4973439;28;20093;-75
2022/03/28 06:12:20;;;;;;;4.33;3.50;;;;;;;-1.47;83.66;98781.00;4939842;28;20137;-73
2022/03/28 06:14:45;;;;;;;5.90;4.03;;;;;;;-1.40;83.71;98774.28;4972593;28;20050;-73
2022/03/28 06:17:23;;;;;;;5.90;4.03;;;;;;;-1.31;83.90;98772.66;4955456;28;20031;-73
2022/03/28 06:19:48;;;;;;;5.53;3.92;;;;;;;-1.28;84.35;98769.75;4973178;28;20043;-72
2022/03/28 06:22:14;;;;;;;3.60;3.10;;;;;;;-1.14;84.04;98763.31;4972794;28;20042;-73
2022/03/28 06:24:40;;;;;;;5.53;4.17;;;;;;;-1.04;83.80;98757.13;4972676;28;20034;-72
2022/03/28 06:27:05;;;;;;;5.60;3.37;;;;;;;-0.89;83.49;98756.69;4972981;28;20077;-70
2022/03/28 06:29:31;;;;;;;4.93;4.00;;;;;;;-0.83;84.05;98749.13;4972656;28;20039;-72
2022/03/28 06:31:57;;;;;;;4.63;3.73;;;;;;;-0.95;83.60;98719.69;4972966;28;20031;-74
2022/03/28 06:34:22;;;;;;;9.23;4.10;;;;;;;-0.69;83.49;98748.69;4955547;28;20835;-74
2022/03/28 06:36:48;;;;;;;8.00;3.50;;;;;;;-0.61;83.31;98750.59;4974068;28;20042;-75
2022/03/28 06:39:16;;;;;;;6.63;4.67;;;;;;;-0.51;83.66;98746.19;4974216;28;20047;-76
2022/03/28 06:41:42;;;;;;;7.88;3.80;;;;;;;-0.45;83.95;98737.78;4955884;28;20129;-72
2022/03/28 06:44:11;;;;;;;4.07;3.53;;;;;;;-0.39;84.13;98731.97;4972780;28;20142;-75
2022/03/28 06:46:43;;;;;;;5.13;3.40;;;;;;;-0.25;83.85;98735.09;4973745;28;20163;-75
2022/03/28 06:49:09;;;;;;;5.73;3.87;;;;;;;-0.22;83.75;98726.97;4973282;28;20276;-74
2022/03/28 06:51:35;;;;;;;9.80;4.03;;;;;;;-0.24;83.69;98715.81;4974075;28;20262;-75
2022/03/28 06:54:06;;;;;;;6.83;3.67;;;;;;;-0.07;83.26;98717.66;4976093;28;20274;-75
2022/03/28 06:56:32;;;;;;;9.90;3.70;;;;;;;0.04;83.05;98704.41;4975991;28;20254;-75
2022/03/28 06:58:57;;;;;;;13.47;4.80;;;;;;;0.21;82.57;98705.38;4976003;28;20637;-73
2022/03/28 07:01:23;;;;;;;10.30;4.80;;;;;;;0.39;82.21;98702.81;4976498;28;20041;-74
2022/03/28 07:03:48;;;;;;;8.50;4.00;;;;;;;0.55;81.85;98695.09;4976763;28;20416;-74
2022/03/28 07:06:14;;;;;;;7.07;3.60;;;;;;;0.71;82.02;98697.88;4976802;28;20502;-76
2022/03/28 07:08:40;;;;;;;10.37;4.00;;;;;;;0.85;81.29;98689.47;4975840;28;20042;-73
2022/03/28 07:11:05;;;;;;;10.40;4.30;;;;;;;0.91;81.58;98683.63;4975773;28;20576;-74
2022/03/28 07:13:31;;;;;;;10.53;3.40;;;;;;;0.98;82.10;98672.53;4975665;28;20553;-75
2022/03/28 07:16:00;;;;;;;8.90;4.53;;;;;;;1.02;82.75;98674.69;4975872;28;20031;-76
2022/03/28 07:18:26;;;;;;;8.82;3.70;;;;;;;1.17;83.46;98675.81;4976022;28;20297;-77
2022/03/28 07:20:51;;;;;;;13.93;3.60;;;;;;;1.31;82.77;98660.47;4958297;28;20042;-74
2022/03/28 07:23:18;;;;;;;6.13;3.77;;;;;;;1.39;83.38;98645.59;4958144;28;20031;-73
2022/03/28 07:25:44;;;;;;;6.10;3.30;;;;;;;1.53;82.77;98663.38;4975328;28;20529;-73
2022/03/28 07:28:14;;;;;;;6.17;3.30;;;;;;;1.65;82.48;98655.22;4975264;28;20289;-74
2022/03/28 07:30:41;;;;;;;12.57;4.00;;;;;;;1.77;82.14;98643.50;4975984;28;20398;-75
2022/03/28 07:33:07;;;;;;;6.80;3.13;;;;;;;1.94;81.37;98645.19;4975656;28;20258;-73
2022/03/28 07:35:35;;;;;;;7.67;3.50;;;;;;;2.10;80.76;98650.50;4959267;28;20298;-74
2022/03/28 07:38:07;;;;;;;7.27;3.77;;;;;;;2.25;80.45;98629.66;4976870;28;20266;-73
2022/03/28 07:40:34;;;;;;;11.63;3.30;;;;;;;2.27;80.17;98651.34;4975686;28;20294;-74
2022/03/28 07:43:00;;;;;;;13.17;5.17;;;;;;;2.25;79.90;98634.09;4978957;28;20282;-72
2022/03/28 07:45:26;;;;;;;7.47;3.50;;;;;;;2.26;80.05;98638.38;4981300;28;20668;-74
2022/03/28 07:47:52;;;;;;;13.30;3.57;;;;;;;2.26;79.97;98636.56;4979694;28;20055;-72
2022/03/28 07:50:18;;;;;;;12.50;3.97;;;;;;;2.17;80.24;98625.22;4979406;28;20266;-74
2022/03/28 07:52:43;;;;;;;10.97;3.67;;;;;;;2.25;80.15;98626.22;4981859;28;20031;-72
2022/03/28 07:55:12;;;;;;;7.63;2.90;;;;;;;2.34;79.70;98625.25;4979893;28;20053;-74
2022/03/28 07:57:37;;;;;;;5.75;2.75;;;;;;;2.36;78.85;98597.03;4960594;28;20926;-72
2022/03/28 08:00:10;;;;;;;3.40;2.80;;;;;;;2.68;78.32;98612.81;4978029;28;20046;-74
2022/03/28 08:02:36;;;;;;;12.47;4.17;;;;;;;2.94;77.89;98596.84;4958857;28;20034;-70
2022/03/28 08:05:02;;;;;;;11.80;4.50;;;;;;;3.26;76.46;98595.13;4975851;28;20772;-75
2022/03/28 08:07:28;;;;;;;5.30;4.03;;;;;;;3.37;75.88;98594.75;4976374;28;20282;-72
2022/03/28 08:09:54;;;;;;;11.53;3.23;;;;;;;3.16;76.26;98579.53;4975762;28;20278;-72
2022/03/28 08:12:23;;;;;;;5.60;3.05;;;;;;;2.84;76.60;98559.38;4976346;28;20638;-72
2022/03/28 08:14:49;;;;;;;3.40;2.33;;;;;;;2.89;77.17;98587.78;4975678;28;20049;-71
2022/03/28 08:17:19;;;;;;;5.30;2.77;;;;;;;2.83;77.35;98583.19;4976094;28;20042;-75
2022/03/28 08:19:46;;;;;;;6.03;3.90;;;;;;;2.95;77.33;98576.63;4958218;28;20281;-71
2022/03/28 08:22:12;;;;;;;6.10;3.50;;;;;;;2.99;76.58;98568.22;4959092;28;20308;-76
2022/03/28 08:24:37;;;;;;;2.90;2.13;;;;;;;3.11;76.25;98587.09;4974660;28;20266;-71
2022/03/28 08:27:03;;;;;;;14.80;3.83;;;;;;;3.01;77.04;98597.00;4958556;28;20039;-74
2022/03/28 08:29:29;;;;;;;9.50;2.90;;;;;;;2.94;77.70;98594.22;4975472;28;20572;-73
2022/03/28 08:31:54;;;;;;;6.37;3.93;;;;;;;2.94;77.54;98591.59;4958261;28;20031;-72
2022/03/28 08:34:20;;;;;;;6.77;2.70;;;;;;;2.74;78.71;98596.38;4957434;28;20043;-70
2022/03/28 08:36:46;;;;;;;10.43;2.87;;;;;;;2.48;80.53;98606.22;4956745;28;20026;-72
2022/03/28 08:39:11;;;;;;;11.10;3.77;;;;;;;2.42;80.79;98612.13;4974108;28;20504;-69
2022/03/28 08:41:37;;;;;;;10.13;3.70;;;;;;;2.42;81.80;98602.44;4974101;28;20110;-67
2022/03/28 08:44:04;;;;;;;10.43;3.17;;;;;;;2.41;81.78;98594.72;4974335;28;20461;-67
2022/03/28 08:46:30;;;;;;;10.33;2.80;;;;;;;2.43;81.79;98601.47;4973894;28;20077;-67
2022/03/28 08:48:59;;;;;;;8.27;2.87;;;;;;;2.34;81.86;98589.31;4973838;28;20278;-65
2022/03/28 08:51:27;;;;;;;7.83;3.07;;;;;;;2.47;81.76;98588.81;4973749;28;20775;-66
2022/03/28 08:53:53;;;;;;;9.52;2.85;;;;;;;2.68;81.39;98596.22;4973852;28;20317;-63
2022/03/28 08:56:19;;;;;;;15.60;4.80;;;;;;;2.69;80.41;98596.03;4973541;28;20041;-65
2022/03/28 08:58:44;;;;;;;8.67;3.37;;;;;;;2.90;80.28;98594.72;4974107;28;20262;-65
2022/03/28 09:01:11;;;;;;;7.33;2.73;;;;;;;3.06;79.35;98589.41;4973971;28;20462;-65
2022/03/28 09:03:44;;;;;;;9.37;2.60;;;;;;;3.15;79.10;98593.66;4973694;28;20041;-68
2022/03/28 09:06:32;;;;;;;12.63;2.97;;;;;;;3.33;78.51;98585.56;4973659;28;20274;-67
2022/03/28 09:09:17;;;;;;;7.27;3.10;;;;;;;3.25;78.52;98570.63;4973760;28;20280;-69
2022/03/28 09:11:50;;;;;;;3.43;2.20;;;;;;;3.21;78.41;98574.59;4974289;28;20305;-66
2022/03/28 09:14:25;;;;;;;8.10;3.20;;;;;;;3.26;78.30;98574.09;4972811;28;20282;-64
2022/03/28 09:17:09;;;;;;;4.53;2.50;;;;;;;3.32;78.71;98566.34;4973574;28;20266;-62
2022/03/28 09:19:41;;;;;;;10.60;2.63;;;;;;;3.32;77.45;98547.91;4973401;28;20649;-64
2022/03/28 09:22:24;;;;;;;6.13;2.20;;;;;;;3.51;78.01;98577.44;4973150;28;20274;-64
2022/03/28 09:24:52;;;;;;;5.90;2.27;;;;;;;3.49;77.08;98563.66;4973122;28;20273;-62
2022/03/28 09:27:21;;;;;;;8.93;2.27;;;;;;;3.78;76.15;98579.63;4973655;28;20266;-63
2022/03/28 09:29:58;;;;;;;;;;;;;;;3.87;76.87;98578.59;4973670;28;20830;-66
2022/03/28 09:32:29;;;;;;;5.17;2.37;;;;;;;3.89;74.60;98579.22;4973163;28;20310;-64
2022/03/28 09:35:21;;;;;;;7.17;3.27;;;;;;;3.87;75.76;98578.59;4973137;28;20713;-66
2022/03/28 09:37:58;;;;;;;9.37;2.70;;;;;;;3.68;75.49;98555.31;4973438;28;20266;-63
2022/03/28 09:40:30;;;;;;;5.30;3.00;;;;;;;3.78;74.60;98571.75;4973308;28;20277;-62
2022/03/28 09:42:58;;;;;;;3.50;2.53;;;;;;;3.65;75.57;98579.34;4973010;28;20286;-63
2022/03/28 09:45:36;;;;;;;7.40;3.63;;;;;;;3.63;76.58;98576.06;4955463;28;20286;-65
2022/03/28 09:48:06;;;;;;;9.48;3.15;;;;;;;3.55;77.09;98573.50;4973085;28;20770;-63
2022/03/28 09:50:33;;;;;;;7.40;2.47;;;;;;;3.60;76.40;98608.81;4973101;28;20094;-64
2022/03/28 09:53:14;;;;;;;4.23;2.20;;;;;;;3.10;78.47;98574.94;4972962;28;20300;-64
2022/03/28 09:56:06;;;;;;;6.30;2.80;;;;;;;2.92;79.95;98585.69;4973098;28;20380;-62
2022/03/28 09:58:39;;;;;;;6.73;3.43;;;;;;;2.80;80.17;98581.72;4973310;28;20348;-63
2022/03/28 10:01:35;;;;;;;2.77;2.43;;;;;;;2.96;80.79;98588.78;4972973;28;20355;-64
2022/03/28 10:04:09;;;;;;;3.97;2.90;;;;;;;3.04;80.24;98594.84;4966327;28;20381;-63
2022/03/28 10:06:40;;;;;;;5.93;2.30;;;;;;;2.97;79.44;98590.44;4973027;28;20796;-64
2022/03/28 10:09:07;;;;;;;7.00;2.33;;;;;;;2.93;79.97;98595.19;4973174;28;20293;-64
2022/03/28 10:11:33;;;;;;;5.83;2.63;;;;;;;2.88;79.88;98586.97;4973375;28;20606;-64
2022/03/28 10:13:59;;;;;;;5.83;2.50;;;;;;;2.84;80.19;98590.91;4972893;28;20311;-63
2022/03/28 10:16:26;;;;;;;7.63;2.60;;;;;;;2.82;80.38;98577.13;4972897;28;20042;-62
2022/03/28 10:18:52;;;;;;;6.10;2.80;;;;;;;2.94;80.14;98585.50;4972756;28;20294;-62
2022/03/28 10:21:31;;;;;;;6.30;2.50;;;;;;;3.06;79.71;98568.38;4972544;28;20262;-64
2022/03/28 10:24:00;;;;;;;5.35;2.60;;;;;;;3.18;78.99;98582.81;4972947;28;20341;-65
2022/03/28 10:26:30;;;;;;;7.97;2.55;;;;;;;2.99;79.32;98578.75;4941215;28;20079;-65
2022/03/28 10:29:09;;;;;;;8.80;3.23;;;;;;;2.88;79.60;98559.84;4957540;29;20051;-64
2022/03/28 10:32:01;;;;;;;9.63;3.38;;;;;;;2.78;80.51;98562.69;4967922;28;20344;-63
2022/03/28 10:34:52;;;;;;;4.23;2.90;;;;;;;2.71;80.40;98559.09;4976598;28;20046;-64
2022/03/28 10:37:35;;;;;;;3.67;2.03;;;;;;;2.94;80.17;98575.00;4976691;28;20266;-64
2022/03/28 10:40:29;;;;;;;7.97;2.73;;;;;;;3.00;79.35;98569.88;4957894;28;20271;-67
2022/03/28 10:43:13;;;;;;;4.77;2.00;;;;;;;2.98;78.65;98556.06;4939936;29;20350;-65
2022/03/28 10:45:44;;;;;;;3.97;2.87;;;;;;;3.15;79.33;98550.75;4956658;29;20312;-63
2022/03/28 10:48:10;;;;;;;9.43;2.47;;;;;;;3.31;77.21;98553.34;4956524;29;20271;-64
2022/03/28 10:50:51;;;;;;;6.43;2.33;;;;;;;3.40;77.31;98566.28;4956973;29;20369;-63
2022/03/28 10:53:29;;;;;;;4.80;1.75;;;;;;;3.35;77.96;98568.63;4963906;28;20534;-64
2022/03/28 10:56:18;;;;;;;11.18;3.13;;;;;;;3.23;76.93;98567.34;4975989;28;20070;-66
2022/03/28 10:58:53;;;;;;;4.67;1.93;;;;;;;3.22;76.31;98528.88;4959232;28;20049;-64
2022/03/28 11:01:20;;;;;;;6.13;2.23;;;;;;;3.28;75.44;98559.78;4975765;28;20717;-64
2022/03/28 11:03:52;;;;;;;2.93;1.90;;;;;;;3.29;76.34;98579.81;4975972;28;20270;-65
2022/03/28 11:06:37;;;;;;;3.53;2.23;;;;;;;3.23;75.00;98548.94;4975727;28;20271;-64
2022/03/28 11:09:03;;;;;;;2.83;2.03;;;;;;;3.25;75.41;98554.84;4975841;28;20329;-64
2022/03/28 11:11:32;;;;;;;5.80;1.67;;;;;;;3.34;76.06;98548.56;4975900;28;20669;-65
2022/03/28 11:14:05;;;;;;;2.37;1.73;;;;;;;3.35;74.37;98546.75;4975727;28;20513;-65
2022/03/28 11:16:49;;;;;;;5.70;1.93;;;;;;;3.34;75.59;98559.09;4975765;28;20279;-65
2022/03/28 11:19:34;;;;;;;2.60;1.60;;;;;;;3.46;72.73;98558.69;4975592;28;20270;-62
2022/03/28 11:22:08;;;;;;;10.37;2.00;;;;;;;3.42;73.98;98556.41;4976197;28;20282;-67
2022/03/28 11:24:45;;;;;;;3.37;1.80;;;;;;;3.34;74.48;98566.97;4975955;28;20848;-66
2022/03/28 11:27:13;;;;;;;6.67;2.57;;;;;;;3.47;74.18;98555.06;4975790;28;20274;-65
2022/03/28 11:29:40;;;;;;;3.53;2.20;;;;;;;3.60;72.50;98553.56;4975177;28;20374;-66
2022/03/28 11:32:11;;;;;;;4.17;1.67;;;;;;;3.53;72.99;98581.56;4957926;28;20844;-68
2022/03/28 11:34:37;;;;;;;5.10;1.83;;;;;;;3.27;74.40;98560.75;4975328;28;20302;-63
2022/03/28 11:37:04;;;;;;;3.40;1.60;;;;;;;3.12;75.08;98538.75;4957541;28;20330;-67
2022/03/28 11:39:31;;;;;;;6.07;2.10;;;;;;;3.16;74.59;98562.91;4974645;28;20266;-65
2022/03/28 11:41:58;;;;;;;2.80;2.07;;;;;;;3.11;74.64;98560.78;4957853;28;20345;-65